Time;durP1;ratioP1;P1;durP2;ratioP2;P2;SDS_P1;SDS_P2;PMS_P1;PMS_P2;Temp;Humidity;BMP_temperature;BMP_pressure;BME280_temperature;BME280_humidity;BME280_pressure;Samples;Min_cycle;Max_cycle;Signal;HPM_P1;HPM_P2
2022/10/16 00:04:45;;;;;;;9.77;7.63;;;;;;;10.83;100.00;101195.34;10537599;28;20052;-66
2022/10/16 00:09:46;;;;;;;8.35;7.47;;;;;;;10.97;100.00;101231.19;10537467;28;20135;-67
2022/10/16 00:14:47;;;;;;;11.30;8.38;;;;;;;10.88;100.00;101224.94;10537172;28;20040;-66
2022/10/16 00:19:47;;;;;;;10.13;8.43;;;;;;;10.84;100.00;101226.22;10536388;28;20043;-67
2022/10/16 00:24:48;;;;;;;13.48;9.25;;;;;;;10.79;100.00;101219.69;10537454;28;20047;-66
2022/10/16 00:29:52;;;;;;;14.07;10.02;;;;;;;10.64;100.00;101201.56;10536452;28;20036;-67
2022/10/16 00:34:56;;;;;;;11.30;10.07;;;;;;;10.76;100.00;101226.13;10537848;28;20101;-65
2022/10/16 00:39:57;;;;;;;12.33;9.77;;;;;;;10.85;100.00;101243.00;10537001;28;20523;-66
2022/10/16 00:44:58;;;;;;;13.15;11.63;;;;;;;10.81;100.00;101242.47;10536255;28;20044;-67
2022/10/16 00:50:07;;;;;;;15.98;13.35;;;;;;;10.69;100.00;101222.41;10537059;28;20556;-67
2022/10/16 00:55:09;;;;;;;16.52;13.80;;;;;;;10.70;100.00;101232.03;10536643;28;20044;-67
2022/10/16 01:00:12;;;;;;;21.00;15.32;;;;;;;10.75;100.00;101243.06;10536932;28;20044;-67
2022/10/16 01:05:13;;;;;;;19.85;16.27;;;;;;;10.69;100.00;101243.66;10535721;28;20098;-67
2022/10/16 01:10:37;;;;;;;22.27;18.77;;;;;;;10.70;100.00;101253.28;10536537;28;20070;-67
2022/10/16 01:15:46;;;;;;;;;;;;;;;10.80;100.00;101270.06;10543733;28;20040;-67
2022/10/16 01:20:54;;;;;;;25.33;19.83;;;;;;;10.57;100.00;101247.47;10543241;28;19961;-66
2022/10/16 01:26:13;;;;;;;29.55;21.98;;;;;;;10.73;100.00;101285.72;10542949;28;20044;-67
2022/10/16 01:31:19;;;;;;;27.15;22.13;;;;;;;10.66;100.00;101283.81;10542702;28;20131;-67
2022/10/16 01:36:26;;;;;;;27.60;22.80;;;;;;;10.59;100.00;101277.38;10543106;28;20484;-67
2022/10/16 01:41:38;;;;;;;25.17;22.48;;;;;;;10.52;100.00;101277.13;10542551;28;20036;-67
2022/10/16 01:46:41;;;;;;;25.63;22.63;;;;;;;10.47;100.00;101279.41;10542899;28;20040;-67
2022/10/16 01:51:46;;;;;;;26.80;22.77;;;;;;;10.44;100.00;101287.63;10542821;28;20028;-67
2022/10/16 01:56:50;;;;;;;23.95;20.23;;;;;;;9.96;100.00;101217.72;10540546;28;20461;-67
2022/10/16 02:01:58;;;;;;;22.67;19.77;;;;;;;10.31;100.00;101274.66;10542141;28;20075;-66
2022/10/16 02:06:59;;;;;;;21.67;19.23;;;;;;;9.71;100.00;101197.06;10542142;28;20058;-67
2022/10/16 02:12:18;;;;;;;22.15;19.08;;;;;;;10.18;100.00;101290.88;10542453;28;20073;-67
2022/10/16 02:17:19;;;;;;;19.92;17.83;;;;;;;9.90;100.00;101266.06;10541064;28;20044;-67
2022/10/16 02:22:46;;;;;;;22.83;18.40;;;;;;;10.14;100.00;101316.06;10541642;28;20044;-66
2022/10/16 02:28:17;;;;;;;21.15;17.10;;;;;;;10.07;100.00;101321.06;10528173;28;20150;-67
2022/10/16 02:33:22;;;;;;;20.20;17.20;;;;;;;9.49;100.00;101244.13;10538467;28;20091;-67
2022/10/16 02:38:24;;;;;;;19.02;15.30;;;;;;;10.00;100.00;101324.44;10540229;28;20411;-66
2022/10/16 02:43:25;;;;;;;17.23;14.90;;;;;;;9.89;100.00;101317.44;10540138;28;20067;-67
2022/10/16 02:48:26;;;;;;;17.17;14.15;;;;;;;9.77;100.00;101300.81;10540665;28;20047;-67
2022/10/16 02:53:27;;;;;;;23.65;14.80;;;;;;;9.97;100.00;101332.69;10539968;28;20040;-66
2022/10/16 02:58:28;;;;;;;15.88;13.57;;;;;;;9.89;100.00;101327.22;10540069;28;20577;-67
2022/10/16 03:03:28;;;;;;;14.65;12.68;;;;;;;9.94;100.00;101328.50;10538956;28;20036;-67
2022/10/16 03:08:29;;;;;;;12.70;10.77;;;;;;;9.65;100.00;101311.72;10540009;28;20048;-66
2022/10/16 03:13:30;;;;;;;15.45;11.75;;;;;;;9.19;100.00;101253.03;10540443;28;20224;-68
2022/10/16 03:18:31;;;;;;;15.18;11.35;;;;;;;9.73;100.00;101349.84;10538644;28;20051;-66
2022/10/16 03:23:32;;;;;;;12.85;10.70;;;;;;;9.62;100.00;101344.66;10539578;28;20047;-66
2022/10/16 03:28:32;;;;;;;13.40;10.13;;;;;;;9.45;100.00;101321.44;10539019;28;20491;-66
2022/10/16 03:33:33;;;;;;;14.77;11.27;;;;;;;9.51;100.00;101339.47;10538271;28;20044;-66
2022/10/16 03:38:34;;;;;;;26.60;10.82;;;;;;;9.52;100.00;101355.25;10538441;28;20036;-66
2022/10/16 03:43:35;;;;;;;15.55;10.25;;;;;;;9.44;100.00;101367.53;10537693;28;20388;-66
2022/10/16 03:48:36;;;;;;;15.95;10.02;;;;;;;9.43;100.00;101377.28;10538159;28;20040;-66
2022/10/16 03:53:37;;;;;;;18.17;10.52;;;;;;;9.49;100.00;101363.50;10537314;28;20499;-66
2022/10/16 03:58:38;;;;;;;13.82;9.18;;;;;;;9.44;100.00;101371.00;10538254;28;20399;-66
2022/10/16 04:03:38;;;;;;;15.48;8.60;;;;;;;8.47;100.00;101226.72;10538264;28;20070;-66
2022/10/16 04:08:42;;;;;;;11.75;8.93;;;;;;;9.21;100.00;101358.94;10537270;28;20527;-67
2022/10/16 04:13:43;;;;;;;14.75;9.07;;;;;;;9.46;100.00;101386.78;10537185;28;20051;-67
2022/10/16 04:18:44;;;;;;;15.48;8.73;;;;;;;9.27;100.00;101371.63;10537296;28;20040;-67
2022/10/16 04:23:45;;;;;;;21.45;8.82;;;;;;;9.37;100.00;101385.78;10537095;28;20055;-66
2022/10/16 04:28:45;;;;;;;15.90;8.30;;;;;;;9.28;100.00;101389.25;10536768;28;20043;-67
2022/10/16 04:33:46;;;;;;;17.20;8.25;;;;;;;9.48;100.00;101417.53;10536637;28;20044;-67
2022/10/16 04:38:47;;;;;;;11.43;7.72;;;;;;;9.50;100.00;101423.50;10536944;28;20533;-67
2022/10/16 04:43:48;;;;;;;10.55;7.70;;;;;;;9.49;100.00;101428.97;10533769;28;20126;-67
2022/10/16 04:48:48;;;;;;;12.68;8.07;;;;;;;9.46;100.00;101443.31;10541809;28;20044;-67
2022/10/16 04:53:49;;;;;;;10.38;7.68;;;;;;;9.47;100.00;101441.50;10541698;28;20500;-66
2022/10/16 04:58:50;;;;;;;12.95;7.15;;;;;;;9.38;100.00;101432.53;10543997;28;20078;-66
2022/10/16 05:03:51;;;;;;;12.88;7.20;;;;;;;9.54;100.00;101446.16;10542485;28;20063;-66
2022/10/16 05:08:51;;;;;;;10.05;7.97;;;;;;;9.40;100.00;101432.41;10544236;28;20127;-67
2022/10/16 05:13:52;;;;;;;10.95;8.40;;;;;;;9.50;100.00;101460.66;10544516;28;20043;-67
2022/10/16 05:18:53;;;;;;;22.55;7.80;;;;;;;9.63;100.00;101455.09;10543156;28;20044;-67
2022/10/16 05:23:55;;;;;;;15.65;7.60;;;;;;;9.75;100.00;101469.97;10542581;28;20028;-66
2022/10/16 05:28:55;;;;;;;43.88;38.75;;;;;;;9.79;100.00;101467.88;10542857;28;20040;-68
2022/10/16 05:34:00;;;;;;;44.45;33.92;;;;;;;9.89;100.00;101465.25;10543286;28;20093;-67
2022/10/16 05:39:01;;;;;;;22.13;11.57;;;;;;;9.95;100.00;101467.34;10541521;28;20040;-67
2022/10/16 05:44:05;;;;;;;20.88;17.33;;;;;;;9.60;100.00;101394.34;10543408;28;20142;-66
2022/10/16 05:49:06;;;;;;;18.52;9.82;;;;;;;10.15;100.00;101474.38;10542700;28;20032;-65
2022/10/16 05:54:07;;;;;;;22.23;8.40;;;;;;;9.93;100.00;101422.38;10538408;28;20043;-68
2022/10/16 05:59:08;;;;;;;13.40;8.25;;;;;;;10.27;100.00;101465.34;10522240;28;20049;-65
2022/10/16 06:04:09;;;;;;;14.63;5.85;;;;;;;10.27;100.00;101472.47;10525377;28;20063;-65
2022/10/16 06:09:10;;;;;;;26.35;6.93;;;;;;;10.33;100.00;101479.88;10540671;28;20416;-65
2022/10/16 06:14:11;;;;;;;13.10;5.68;;;;;;;10.31;100.00;101467.72;10541061;28;20051;-65
2022/10/16 06:19:12;;;;;;;8.13;5.53;;;;;;;10.33;100.00;101465.78;10538093;28;20074;-65
2022/10/16 06:24:12;;;;;;;9.38;5.80;;;;;;;10.21;100.00;101455.25;10541192;28;20043;-65
2022/10/16 06:29:13;;;;;;;14.48;6.57;;;;;;;10.28;100.00;101452.88;10540192;28;20507;-66
2022/10/16 06:34:14;;;;;;;12.15;5.47;;;;;;;10.33;100.00;101453.31;10540026;28;20522;-66
2022/10/16 06:39:15;;;;;;;9.05;5.60;;;;;;;10.60;100.00;101481.00;10539445;28;20055;-66
2022/10/16 06:44:15;;;;;;;7.07;5.45;;;;;;;10.24;100.00;101391.22;10539005;28;20399;-66
2022/10/16 06:49:21;;;;;;;7.85;5.22;;;;;;;10.72;100.00;101464.78;10539660;28;20040;-68
2022/10/16 06:54:22;;;;;;;8.73;5.75;;;;;;;10.58;100.00;101451.06;10539883;28;20067;-67
2022/10/16 06:59:23;;;;;;;8.60;5.30;;;;;;;10.81;100.00;101452.44;10539350;28;20064;-65
2022/10/16 07:04:23;;;;;;;7.30;5.63;;;;;;;11.04;100.00;101460.94;10540020;28;20073;-67
2022/10/16 07:09:24;;;;;;;8.77;5.50;;;;;;;11.09;100.00;101456.03;10538691;28;20131;-65
2022/10/16 07:14:25;;;;;;;8.48;5.07;;;;;;;11.15;100.00;101460.75;10539081;28;20036;-66
2022/10/16 07:19:26;;;;;;;8.02;5.18;;;;;;;11.01;100.00;101434.66;10539057;28;20047;-66
2022/10/16 07:24:26;;;;;;;7.68;5.50;;;;;;;10.70;100.00;101381.69;10538672;28;20051;-67
2022/10/16 07:29:27;;;;;;;9.38;5.20;;;;;;;11.33;100.00;101452.03;10537417;28;20040;-67
2022/10/16 07:34:28;;;;;;;6.50;4.97;;;;;;;11.49;100.00;101464.72;10538359;28;20075;-66
2022/10/16 07:39:29;;;;;;;12.13;5.30;;;;;;;11.55;100.00;101458.81;10538638;28;20032;-66
2022/10/16 07:44:29;;;;;;;8.02;4.60;;;;;;;11.20;100.00;101385.88;10535598;28;20177;-67
2022/10/16 07:49:30;;;;;;;13.23;7.43;;;;;;;11.31;100.00;101380.38;10538281;28;20048;-67
2022/10/16 07:54:31;;;;;;;8.52;5.18;;;;;;;11.76;100.00;101454.09;10537216;28;20522;-66
2022/10/16 07:59:32;;;;;;;12.40;5.53;;;;;;;11.90;100.00;101481.22;10537390;28;20518;-66
2022/10/16 08:04:32;;;;;;;6.85;5.03;;;;;;;11.73;100.00;101490.81;10537252;28;20055;-67
2022/10/16 08:09:33;;;;;;;17.52;6.68;;;;;;;10.96;100.00;101350.00;10538402;28;20527;-66
2022/10/16 08:14:34;;;;;;;8.40;5.60;;;;;;;11.81;100.00;101483.75;10536624;28;20052;-66
2022/10/16 08:19:35;;;;;;;12.30;9.35;;;;;;;11.96;100.00;101477.97;10537388;28;20038;-67
2022/10/16 08:24:36;;;;;;;12.82;10.82;;;;;;;11.96;100.00;101488.59;10546249;28;20040;-66
2022/10/16 08:29:38;;;;;;;7.80;6.20;;;;;;;12.01;100.00;101481.84;10544234;28;20032;-66
2022/10/16 08:34:39;;;;;;;6.95;5.90;;;;;;;12.11;100.00;101476.47;10545151;28;20040;-66
2022/10/16 08:39:39;;;;;;;9.27;7.10;;;;;;;11.75;100.00;101407.13;10543538;28;20036;-67
2022/10/16 08:44:55;;;;;;;10.27;7.05;;;;;;;12.37;100.00;101463.25;10545083;28;20134;-66
2022/10/16 08:49:59;;;;;;;9.57;6.75;;;;;;;12.54;100.00;101457.06;10545112;28;20032;-66
2022/10/16 08:55:00;;;;;;;9.65;6.90;;;;;;;12.72;100.00;101482.88;10544784;28;20096;-66
2022/10/16 09:00:12;;;;;;;11.07;6.10;;;;;;;12.84;100.00;101462.13;10546351;28;20181;-65
2022/10/16 09:05:19;;;;;;;13.70;6.20;;;;;;;12.85;100.00;101456.63;10544192;28;20052;-67
2022/10/16 09:10:38;;;;;;;8.93;6.22;;;;;;;12.96;100.00;101452.88;10542927;28;20040;-67
2022/10/16 09:15:45;;;;;;;9.50;5.90;;;;;;;13.16;100.00;101454.38;10543923;28;20389;-67
2022/10/16 09:20:55;;;;;;;12.70;6.10;;;;;;;12.96;100.00;101389.72;10543909;28;20032;-67
2022/10/16 09:25:58;;;;;;;9.45;6.25;;;;;;;13.19;100.00;101445.19;10543545;28;20118;-66
2022/10/16 09:30:59;;;;;;;16.98;6.38;;;;;;;13.35;100.00;101461.31;10542460;28;20032;-66
2022/10/16 09:36:02;;;;;;;12.18;6.35;;;;;;;12.40;100.00;101300.38;10542762;28;20051;-67
2022/10/16 09:41:14;;;;;;;11.68;6.10;;;;;;;13.41;100.00;101443.84;10543228;28;20028;-66
2022/10/16 09:46:44;;;;;;;11.30;5.50;;;;;;;13.52;100.00;101451.56;10543308;28;20113;-67
2022/10/16 09:51:45;;;;;;;10.73;5.32;;;;;;;13.56;100.00;101455.59;10533355;28;20090;-66
2022/10/16 09:56:51;;;;;;;7.05;5.10;;;;;;;13.62;100.00;101446.09;10532933;28;20392;-67
2022/10/16 10:01:54;;;;;;;11.80;5.25;;;;;;;13.27;100.00;101362.53;10541884;28;20051;-66
2022/10/16 10:06:57;;;;;;;8.90;4.60;;;;;;;13.88;100.00;101454.88;10540755;28;20129;-68
2022/10/16 10:12:01;;;;;;;8.98;4.57;;;;;;;14.01;100.00;101449.06;10540926;28;20089;-67
2022/10/16 10:17:24;;;;;;;8.15;5.20;;;;;;;13.87;100.00;101420.31;10541960;28;20047;-67
2022/10/16 10:22:40;;;;;;;9.95;4.13;;;;;;;13.97;100.00;101453.06;10541532;28;20036;-66
2022/10/16 10:28:05;;;;;;;9.43;4.30;;;;;;;14.15;100.00;101452.94;10540637;28;20519;-66
2022/10/16 10:33:14;;;;;;;10.65;4.28;;;;;;;14.23;100.00;101447.59;10536191;28;20075;-67
2022/10/16 10:38:15;;;;;;;9.68;5.28;;;;;;;14.32;100.00;101441.25;10537416;28;20512;-68
2022/10/16 10:43:42;;;;;;;13.32;4.72;;;;;;;14.43;99.38;101426.72;10535055;28;20111;-66
2022/10/16 10:49:07;;;;;;;11.52;6.05;;;;;;;14.58;98.37;101421.59;10532700;28;20028;-67
2022/10/16 10:54:30;;;;;;;19.58;5.75;;;;;;;14.36;97.33;101348.22;10532791;28;20131;-67
2022/10/16 10:59:50;;;;;;;12.48;5.93;;;;;;;14.55;94.20;101355.91;10535291;28;20036;-67
2022/10/16 11:05:11;;;;;;;26.58;14.02;;;;;;;15.04;92.99;101425.34;10534367;28;20134;-66
2022/10/16 11:10:42;;;;;;;12.38;6.28;;;;;;;15.14;90.33;101419.81;10533343;28;20059;-66
2022/10/16 11:15:47;;;;;;;13.38;5.20;;;;;;;15.14;92.10;101421.69;10529480;28;20048;-66
2022/10/16 11:20:57;;;;;;;12.30;7.45;;;;;;;15.13;91.71;101418.13;10535462;28;20507;-65
2022/10/16 11:26:06;;;;;;;13.85;4.95;;;;;;;15.14;88.43;101421.69;10534207;28;20139;-67
2022/10/16 11:31:44;;;;;;;13.82;5.75;;;;;;;15.13;85.13;101423.50;10533565;28;20075;-68
2022/10/16 11:36:51;;;;;;;16.58;6.93;;;;;;;15.03;87.74;101412.97;10532090;28;20047;-66
2022/10/16 11:42:13;;;;;;;14.77;5.57;;;;;;;15.17;86.42;101429.34;10533203;28;20044;-67
2022/10/16 11:47:33;;;;;;;12.80;3.70;;;;;;;15.21;83.99;101418.13;10532615;28;20042;-65
2022/10/16 11:52:42;;;;;;;23.33;7.30;;;;;;;15.26;84.35;101418.44;10531792;28;20092;-66
2022/10/16 11:57:48;;;;;;;12.38;3.83;;;;;;;15.30;83.51;101421.59;10530137;28;20484;-66
2022/10/16 12:03:08;;;;;;;22.23;4.97;;;;;;;14.98;82.83;101366.34;10533976;28;20036;-66
2022/10/16 12:08:12;;;;;;;12.63;5.07;;;;;;;14.96;82.30;101368.38;10529230;28;20396;-66
2022/10/16 12:13:35;;;;;;;21.73;5.70;;;;;;;15.37;81.41;101433.28;10532437;28;20048;-68
2022/10/16 12:18:36;;;;;;;21.52;8.55;;;;;;;15.08;82.08;101391.06;10531939;28;20055;-66
2022/10/16 12:23:58;;;;;;;16.80;7.43;;;;;;;15.23;81.31;101417.97;10529751;28;20168;-66
2022/10/16 12:29:33;;;;;;;10.40;4.32;;;;;;;15.35;79.14;101446.03;10528171;28;20044;-66
2022/10/16 12:34:44;;;;;;;14.18;3.05;;;;;;;14.95;79.75;101388.09;10529364;28;20403;-67
2022/10/16 12:39:46;;;;;;;14.88;3.70;;;;;;;15.27;80.52;101446.88;10530247;28;20530;-68
2022/10/16 12:44:47;;;;;;;18.42;3.40;;;;;;;15.18;80.48;101420.31;10531438;28;20048;-68
2022/10/16 12:49:51;;;;;;;13.63;3.28;;;;;;;15.26;79.53;101436.34;10532264;28;20065;-66
2022/10/16 12:54:58;;;;;;;15.95;3.20;;;;;;;15.09;78.58;101416.00;10528072;28;20040;-68
2022/10/16 13:00:10;;;;;;;24.67;3.08;;;;;;;15.28;78.86;101450.38;10534400;28;20097;-68
2022/10/16 13:05:28;;;;;;;20.98;2.85;;;;;;;15.31;78.63;101455.41;10536311;28;20064;-66
2022/10/16 13:10:47;;;;;;;13.75;2.67;;;;;;;15.29;78.56;101471.66;10542324;28;20131;-66
2022/10/16 13:15:59;;;;;;;24.20;5.05;;;;;;;15.26;79.07;101476.50;10544158;28;20035;-67
2022/10/16 13:21:23;;;;;;;20.55;5.60;;;;;;;15.19;80.16;101470.16;10544197;28;20047;-67
2022/10/16 13:26:36;;;;;;;18.00;4.10;;;;;;;15.15;80.63;101479.53;10543301;28;20116;-67
2022/10/16 13:31:39;;;;;;;11.07;3.15;;;;;;;14.89;80.33;101442.28;10543372;28;20044;-66
2022/10/16 13:36:52;;;;;;;17.38;2.67;;;;;;;15.03;80.30;101466.50;10536346;28;20081;-67
2022/10/16 13:42:07;;;;;;;12.73;2.20;;;;;;;15.11;79.18;101478.22;10534503;28;20134;-66
2022/10/16 13:47:17;;;;;;;24.35;3.78;;;;;;;15.10;79.44;101468.50;10537604;28;20447;-67
2022/10/16 13:52:21;;;;;;;22.88;3.25;;;;;;;15.12;80.38;101490.59;10532060;28;20040;-67
2022/10/16 13:57:24;;;;;;;15.77;4.78;;;;;;;14.62;80.69;101409.53;10533455;28;20040;-68
2022/10/16 14:02:39;;;;;;;29.02;10.38;;;;;;;15.11;80.42;101483.56;10535022;28;20032;-67
2022/10/16 14:07:40;;;;;;;14.57;3.97;;;;;;;14.47;80.86;101379.09;10534904;28;20126;-67
2022/10/16 14:12:41;;;;;;;12.40;3.60;;;;;;;15.06;80.95;101482.22;10534928;28;20047;-67
2022/10/16 14:17:45;;;;;;;8.25;3.95;;;;;;;14.60;80.99;101417.75;10533126;28;20385;-68
2022/10/16 14:22:46;;;;;;;7.25;3.13;;;;;;;14.97;81.54;101493.94;10533352;28;20040;-67
2022/10/16 14:27:58;;;;;;;11.57;3.22;;;;;;;14.48;80.89;101429.75;10532513;28;20032;-67
2022/10/16 14:33:19;;;;;;;13.20;3.38;;;;;;;14.83;82.41;101491.94;10533432;28;20668;-68
2022/10/16 14:38:20;;;;;;;17.48;3.97;;;;;;;14.82;82.89;101499.13;10532128;28;20040;-67
2022/10/16 14:43:30;;;;;;;13.32;3.80;;;;;;;14.77;83.66;101511.34;10530556;28;20043;-68
2022/10/16 14:48:31;;;;;;;11.63;3.75;;;;;;;14.30;84.10;101440.59;10537612;28;20050;-66
2022/10/16 14:53:32;;;;;;;19.92;3.40;;;;;;;14.22;84.85;101437.91;10539526;28;20515;-68
2022/10/16 14:58:33;;;;;;;15.52;3.28;;;;;;;14.47;85.25;101492.22;10539473;28;20135;-66
2022/10/16 15:03:33;;;;;;;13.80;2.50;;;;;;;14.58;85.54;101537.41;10538665;28;20122;-67
2022/10/16 15:08:34;;;;;;;10.07;3.00;;;;;;;14.54;86.06;101536.06;10538584;28;20044;-68
2022/10/16 15:13:35;;;;;;;16.45;3.92;;;;;;;14.50;86.66;101550.72;10538038;28;20134;-68
2022/10/16 15:18:36;;;;;;;12.88;3.60;;;;;;;14.45;87.09;101553.06;10516191;28;20127;-68
2022/10/16 15:23:38;;;;;;;11.70;3.03;;;;;;;14.30;87.28;101549.34;10515802;28;20043;-66
2022/10/16 15:28:39;;;;;;;12.13;3.47;;;;;;;14.26;87.46;101556.84;10521474;28;20066;-67
2022/10/16 15:33:40;;;;;;;14.38;3.70;;;;;;;14.22;87.73;101552.00;10513370;28;20036;-68
2022/10/16 15:38:40;;;;;;;9.88;3.30;;;;;;;14.29;88.12;101585.91;10519876;28;20561;-67
2022/10/16 15:43:41;;;;;;;9.27;3.00;;;;;;;14.19;88.41;101579.03;10516543;28;20067;-67
2022/10/16 15:48:43;;;;;;;8.52;3.42;;;;;;;13.68;88.72;101496.19;10525067;28;20177;-67
2022/10/16 15:53:46;;;;;;;8.32;3.92;;;;;;;14.00;89.02;101559.59;10521118;28;20046;-67
2022/10/16 15:58:46;;;;;;;10.52;3.10;;;;;;;14.00;89.09;101580.13;10512728;28;20032;-67
2022/10/16 16:03:47;;;;;;;14.73;3.97;;;;;;;13.88;89.36;101569.72;10528356;28;20059;-66
2022/10/16 16:08:48;;;;;;;8.65;3.65;;;;;;;13.84;89.69;101575.53;10521045;28;20042;-68
2022/10/16 16:13:49;;;;;;;11.35;4.25;;;;;;;13.95;89.79;101593.97;10530522;28;20130;-67
2022/10/16 16:18:52;;;;;;;9.38;3.60;;;;;;;13.92;90.01;101608.47;10537406;28;20040;-67
2022/10/16 16:23:54;;;;;;;17.10;4.10;;;;;;;13.79;89.99;101596.53;10532682;28;20032;-67
2022/10/16 16:28:56;;;;;;;15.40;4.10;;;;;;;13.79;90.17;101599.22;10531964;28;20363;-65
2022/10/16 16:33:57;;;;;;;27.15;4.03;;;;;;;13.27;90.38;101521.81;10525679;28;20040;-66
2022/10/16 16:38:59;;;;;;;9.93;3.70;;;;;;;13.71;90.51;101613.38;10528663;28;20044;-67
2022/10/16 16:44:08;;;;;;;11.23;4.18;;;;;;;13.12;90.66;101535.69;10520985;28;20047;-66
2022/10/16 16:49:12;;;;;;;10.13;4.65;;;;;;;13.51;90.11;101618.06;10523229;28;20522;-66
2022/10/16 16:54:13;;;;;;;10.80;4.20;;;;;;;13.55;90.05;101654.16;10520822;28;20043;-67
2022/10/16 16:59:17;;;;;;;9.73;4.00;;;;;;;13.46;90.16;101652.38;10522320;28;20032;-66
2022/10/16 17:04:18;;;;;;;8.18;3.67;;;;;;;13.24;90.09;101633.16;10519937;28;20112;-67
2022/10/16 17:09:20;;;;;;;9.30;4.07;;;;;;;13.31;90.18;101653.94;10533916;28;20200;-67
2022/10/16 17:14:20;;;;;;;12.88;4.57;;;;;;;13.23;90.13;101649.34;10522650;28;20044;-67
2022/10/16 17:19:21;;;;;;;11.65;4.32;;;;;;;13.25;90.44;101655.38;10525799;28;20043;-67
2022/10/16 17:24:22;;;;;;;9.98;4.32;;;;;;;13.21;90.29;101675.34;10543308;28;20097;-66
2022/10/16 17:29:23;;;;;;;9.20;3.63;;;;;;;12.60;90.08;101572.91;10544660;28;20521;-66
2022/10/16 17:34:24;;;;;;;11.35;4.10;;;;;;;13.12;90.55;101669.09;10543416;28;20077;-66
2022/10/16 17:39:25;;;;;;;11.15;4.13;;;;;;;13.01;90.15;101661.28;10543360;28;20032;-67
2022/10/16 17:44:25;;;;;;;9.45;3.78;;;;;;;12.93;90.33;101672.75;10542605;28;20048;-67
2022/10/16 17:49:26;;;;;;;10.45;3.90;;;;;;;12.40;90.53;101598.00;10542691;28;20036;-67
2022/10/16 17:54:27;;;;;;;6.43;4.05;;;;;;;12.85;90.42;101680.66;10542054;28;20126;-68
2022/10/16 17:59:28;;;;;;;10.50;4.18;;;;;;;12.71;90.79;101668.69;10542533;28;20036;-68
2022/10/16 18:04:28;;;;;;;8.18;3.80;;;;;;;12.66;90.47;101662.13;10542227;28;20415;-68
2022/10/16 18:09:29;;;;;;;9.50;4.22;;;;;;;12.64;90.92;101670.25;10540823;28;20078;-68
2022/10/16 18:14:31;;;;;;;12.18;3.78;;;;;;;12.14;90.85;101593.34;10541108;28;20051;-68
2022/10/16 18:19:32;;;;;;;15.20;4.00;;;;;;;12.59;91.35;101669.84;10541597;28;20507;-66
2022/10/16 18:24:33;;;;;;;8.82;3.63;;;;;;;12.52;91.41;101655.44;10539785;28;20139;-67
2022/10/16 18:29:36;;;;;;;7.78;3.10;;;;;;;12.12;91.46;101605.19;10539144;28;20051;-66
2022/10/16 18:34:37;;;;;;;10.40;3.33;;;;;;;12.13;91.62;101610.34;10537023;28;20389;-67
2022/10/16 18:39:38;;;;;;;8.05;2.90;;;;;;;12.09;91.60;101606.31;10540419;28;20032;-66
2022/10/16 18:44:38;;;;;;;7.85;2.78;;;;;;;12.28;91.12;101653.31;10539078;28;20048;-65
2022/10/16 18:49:39;;;;;;;7.38;2.72;;;;;;;12.27;91.77;101660.47;10527371;28;20036;-66
2022/10/16 18:54:40;;;;;;;5.18;2.53;;;;;;;12.27;91.58;101659.66;10539536;28;20411;-65
2022/10/16 18:59:41;;;;;;;6.75;2.60;;;;;;;12.21;91.81;101653.06;10525371;28;20051;-67
2022/10/16 19:04:41;;;;;;;5.15;2.58;;;;;;;11.68;90.88;101587.06;10518039;28;20056;-67
2022/10/16 19:09:42;;;;;;;6.20;2.28;;;;;;;11.61;91.03;101573.50;10516992;28;20036;-66
2022/10/16 19:14:43;;;;;;;8.48;2.50;;;;;;;11.98;90.88;101657.91;10525297;28;20039;-67
2022/10/16 19:19:44;;;;;;;5.97;2.25;;;;;;;11.96;90.80;101656.38;10514535;28;20494;-67
2022/10/16 19:24:45;;;;;;;4.88;1.98;;;;;;;11.90;90.78;101663.13;10514934;28;20454;-66
2022/10/16 19:29:45;;;;;;;6.60;2.22;;;;;;;11.42;90.25;101585.03;10516013;28;20131;-67
2022/10/16 19:34:50;;;;;;;3.92;2.22;;;;;;;11.39;91.12;101582.66;10516347;28;20032;-66
2022/10/16 19:39:50;;;;;;;5.88;2.20;;;;;;;11.90;91.03;101686.25;10518325;28;20051;-67
2022/10/16 19:44:51;;;;;;;4.80;1.95;;;;;;;11.81;90.89;101680.75;10515436;28;20047;-67
2022/10/16 19:49:52;;;;;;;4.53;1.90;;;;;;;11.33;90.77;101608.97;10514826;28;20135;-66
2022/10/16 19:54:56;;;;;;;6.40;2.17;;;;;;;11.80;90.56;101710.19;10515539;28;20422;-67
2022/10/16 19:59:57;;;;;;;6.35;1.95;;;;;;;11.74;90.44;101694.81;10531552;28;20052;-66
2022/10/16 20:04:58;;;;;;;7.70;1.92;;;;;;;11.63;90.55;101674.50;10528201;28;20059;-67
2022/10/16 20:09:58;;;;;;;6.35;1.95;;;;;;;11.74;90.67;101690.31;10536346;28;20130;-66
2022/10/16 20:14:59;;;;;;;5.40;2.17;;;;;;;11.18;90.24;101605.91;10530129;28;20059;-66
2022/10/16 20:20:00;;;;;;;6.75;2.20;;;;;;;11.67;89.94;101686.56;10537964;28;20395;-66
2022/10/16 20:25:01;;;;;;;8.50;2.38;;;;;;;11.50;89.98;101669.47;10537434;28;20043;-66
2022/10/16 20:30:02;;;;;;;6.80;1.95;;;;;;;11.62;90.19;101680.81;10537461;28;20083;-68
2022/10/16 20:35:03;;;;;;;5.03;2.13;;;;;;;11.08;89.58;101591.81;10536628;28;20054;-67
2022/10/16 20:40:04;;;;;;;5.28;1.80;;;;;;;11.59;90.15;101686.41;10538156;28;20051;-67
2022/10/16 20:45:06;;;;;;;7.85;1.70;;;;;;;10.68;89.76;101542.28;10538348;28;20036;-66
2022/10/16 20:50:07;;;;;;;5.70;1.73;;;;;;;11.59;89.53;101707.72;10536637;28;20044;-66
2022/10/16 20:55:08;;;;;;;5.03;1.88;;;;;;;11.41;89.53;101688.94;10536362;28;20443;-67
2022/10/16 21:00:10;;;;;;;13.63;2.08;;;;;;;11.60;89.89;101710.22;10537128;28;20048;-67
2022/10/16 21:05:11;;;;;;;4.07;1.80;;;;;;;11.53;89.46;101686.97;10536067;28;20117;-67
2022/10/16 21:10:12;;;;;;;4.10;1.50;;;;;;;11.53;89.85;101703.78;10532528;28;20044;-66
2022/10/16 21:15:13;;;;;;;3.35;1.70;;;;;;;11.48;89.39;101682.06;10536033;28;20114;-66
2022/10/16 21:20:13;;;;;;;5.18;1.65;;;;;;;11.35;89.85;101665.56;10536064;28;20039;-66
2022/10/16 21:25:14;;;;;;;6.18;1.65;;;;;;;11.34;89.48;101672.72;10536405;28;20036;-67
2022/10/16 21:30:15;;;;;;;5.15;1.52;;;;;;;11.46;89.30;101701.81;10539812;28;20437;-66
2022/10/16 21:35:16;;;;;;;3.47;1.27;;;;;;;11.42;89.22;101698.59;10543991;28;20502;-66
2022/10/16 21:40:17;;;;;;;3.75;1.42;;;;;;;11.18;89.34;101667.09;10543787;28;20089;-68
2022/10/16 21:45:18;;;;;;;4.80;1.75;;;;;;;11.43;89.27;101714.44;10544092;28;20450;-66
2022/10/16 21:50:19;;;;;;;5.13;1.65;;;;;;;11.39;89.47;101710.34;10543445;28;20093;-67
2022/10/16 21:55:19;;;;;;;3.17;1.30;;;;;;;11.40;88.97;101727.19;10542227;28;20061;-66
2022/10/16 22:00:20;;;;;;;4.13;1.17;;;;;;;10.83;88.89;101638.38;10541988;28;20039;-66
2022/10/16 22:05:21;;;;;;;6.03;1.35;;;;;;;10.96;88.85;101663.72;10543212;28;20159;-67
2022/10/16 22:10:21;;;;;;;4.70;1.50;;;;;;;11.35;88.94;101727.59;10542392;28;20080;-66
2022/10/16 22:15:22;;;;;;;2.60;1.20;;;;;;;11.36;88.65;101734.59;10541686;28;20139;-66
2022/10/16 22:20:23;;;;;;;6.63;1.60;;;;;;;11.34;88.55;101733.91;10542128;28;20515;-66
2022/10/16 22:25:24;;;;;;;5.25;1.30;;;;;;;11.29;88.31;101741.44;10541818;28;20051;-67
2022/10/16 22:30:25;;;;;;;5.70;1.30;;;;;;;11.21;88.19;101725.34;10542293;28;20048;-66
2022/10/16 22:35:25;;;;;;;3.30;1.40;;;;;;;10.71;88.08;101643.00;10540587;28;20509;-66
2022/10/16 22:40:26;;;;;;;4.13;1.25;;;;;;;11.29;88.18;101744.09;10540662;28;20040;-66
2022/10/16 22:45:27;;;;;;;7.70;1.20;;;;;;;11.23;88.65;101730.53;10540888;28;20036;-67
2022/10/16 22:50:28;;;;;;;7.03;1.55;;;;;;;11.32;88.44;101753.63;10540822;28;20036;-66
2022/10/16 22:55:29;;;;;;;3.90;1.25;;;;;;;10.78;87.98;101668.03;10540545;28;20052;-67
2022/10/16 23:00:30;;;;;;;5.00;1.70;;;;;;;11.22;88.43;101753.63;10539794;28;20042;-66
2022/10/16 23:05:31;;;;;;;2.67;1.30;;;;;;;11.19;88.43;101760.06;10539093;28;20060;-66